sensor_id;sensor_type;location;lat;lon;timestamp;pressure;altitude;pressure_sealevel;temperature;humidity
71735;BME280;59577;52.122;5.406;2023-02-16T00:00:20;102466.06;;;4.79;87.28
71735;BME280;59577;52.122;5.406;2023-02-16T00:02:47;102467.16;;;4.78;87.21
71735;BME280;59577;52.122;5.406;2023-02-16T00:05:24;102469.84;;;4.78;87.39
71735;BME280;59577;52.122;5.406;2023-02-16T00:07:52;102465.00;;;4.80;87.70
71735;BME280;59577;52.122;5.406;2023-02-16T00:10:19;102470.38;;;4.75;87.83
71735;BME280;59577;52.122;5.406;2023-02-16T00:12:46;102470.13;;;4.71;87.41
71735;BME280;59577;52.122;5.406;2023-02-16T00:15:31;102470.38;;;4.69;88.11
71735;BME280;59577;52.122;5.406;2023-02-16T00:18:00;102473.06;;;4.69;87.73
71735;BME280;59577;52.122;5.406;2023-02-16T00:20:28;102470.38;;;4.69;87.73
71735;BME280;59577;52.122;5.406;2023-02-16T00:22:57;102465.03;;;4.69;88.28
71735;BME280;59577;52.122;5.406;2023-02-16T00:25:24;102465.56;;;4.66;87.91
71735;BME280;59577;52.122;5.406;2023-02-16T00:27:50;102466.38;;;4.62;88.32
71735;BME280;59577;52.122;5.406;2023-02-16T00:30:19;102464.25;;;4.59;88.59
71735;BME280;59577;52.122;5.406;2023-02-16T00:32:46;102465.31;;;4.58;88.05
71735;BME280;59577;52.122;5.406;2023-02-16T00:35:18;102472.03;;;4.60;88.21
71735;BME280;59577;52.122;5.406;2023-02-16T00:37:46;102466.66;;;4.60;88.29
71735;BME280;59577;52.122;5.406;2023-02-16T00:40:14;102467.19;;;4.62;88.72
71735;BME280;59577;52.122;5.406;2023-02-16T00:42:43;102465.03;;;4.64;88.68
71735;BME280;59577;52.122;5.406;2023-02-16T00:45:16;102459.94;;;4.63;89.01
71735;BME280;59577;52.122;5.406;2023-02-16T00:47:43;102458.31;;;4.62;88.90
71735;BME280;59577;52.122;5.406;2023-02-16T00:50:22;102451.34;;;4.66;88.68
71735;BME280;59577;52.122;5.406;2023-02-16T00:52:49;102451.63;;;4.64;88.45
71735;BME280;59577;52.122;5.406;2023-02-16T00:55:24;102461.56;;;4.64;89.15
71735;BME280;59577;52.122;5.406;2023-02-16T00:58:04;102461.00;;;4.62;89.09
71735;BME280;59577;52.122;5.406;2023-02-16T01:00:34;102456.19;;;4.59;88.70
71735;BME280;59577;52.122;5.406;2023-02-16T01:03:04;102457.78;;;4.55;88.78
71735;BME280;59577;52.122;5.406;2023-02-16T01:05:32;102450.28;;;4.51;88.61
71735;BME280;59577;52.122;5.406;2023-02-16T01:07:58;102454.06;;;4.56;88.98
71735;BME280;59577;52.122;5.406;2023-02-16T01:10:44;102453.78;;;4.57;89.09
71735;BME280;59577;52.122;5.406;2023-02-16T01:13:32;102443.59;;;4.59;88.97
71735;BME280;59577;52.122;5.406;2023-02-16T01:15:59;102442.53;;;4.60;89.49
71735;BME280;59577;52.122;5.406;2023-02-16T01:18:26;102442.53;;;4.55;88.99
71735;BME280;59577;52.122;5.406;2023-02-16T01:20:53;102450.28;;;4.51;89.20
71735;BME280;59577;52.122;5.406;2023-02-16T01:23:20;102441.72;;;4.49;89.12
71735;BME280;59577;52.122;5.406;2023-02-16T01:25:46;102444.13;;;4.46;89.47
71735;BME280;59577;52.122;5.406;2023-02-16T01:28:24;102443.59;;;4.49;89.44
71735;BME280;59577;52.122;5.406;2023-02-16T01:30:51;102447.06;;;4.49;89.41
71735;BME280;59577;52.122;5.406;2023-02-16T01:33:19;102433.41;;;4.46;89.28
71735;BME280;59577;52.122;5.406;2023-02-16T01:35:46;102437.19;;;4.45;89.81
71735;BME280;59577;52.122;5.406;2023-02-16T01:38:21;102435.03;;;4.42;89.64
71735;BME280;59577;52.122;5.406;2023-02-16T01:43:25;102425.38;;;4.41;89.76
71735;BME280;59577;52.122;5.406;2023-02-16T01:46:14;102426.47;;;4.40;89.55
71735;BME280;59577;52.122;5.406;2023-02-16T01:48:43;102430.19;;;4.39;89.84
71735;BME280;59577;52.122;5.406;2023-02-16T01:51:20;102426.47;;;4.35;89.46
71735;BME280;59577;52.122;5.406;2023-02-16T01:54:09;102426.47;;;4.35;90.27
71735;BME280;59577;52.122;5.406;2023-02-16T01:56:45;102421.63;;;4.37;90.14
71735;BME280;59577;52.122;5.406;2023-02-16T01:59:58;102414.66;;;4.36;90.12
71735;BME280;59577;52.122;5.406;2023-02-16T02:02:34;102422.69;;;4.41;90.57
71735;BME280;59577;52.122;5.406;2023-02-16T02:05:10;102418.94;;;4.42;90.23
71735;BME280;59577;52.122;5.406;2023-02-16T02:13:25;102404.69;;;4.62;90.10
71735;BME280;59577;52.122;5.406;2023-02-16T02:15:57;102404.94;;;4.65;89.73
71735;BME280;59577;52.122;5.406;2023-02-16T02:18:24;102399.31;;;4.67;89.85
71735;BME280;59577;52.122;5.406;2023-02-16T02:27:24;102392.84;;;4.78;89.74
71735;BME280;59577;52.122;5.406;2023-02-16T02:30:14;102398.72;;;4.80;89.28
71735;BME280;59577;52.122;5.406;2023-02-16T02:43:29;102377.22;;;4.96;88.87
71735;BME280;59577;52.122;5.406;2023-02-16T02:46:12;102377.47;;;4.99;88.61
71735;BME280;59577;52.122;5.406;2023-02-16T02:48:41;102371.81;;;5.01;88.25
71735;BME280;59577;52.122;5.406;2023-02-16T02:53:59;102371.81;;;5.01;88.52
71735;BME280;59577;52.122;5.406;2023-02-16T02:56:50;102371.03;;;5.00;88.53
71735;BME280;59577;52.122;5.406;2023-02-16T02:59:39;102370.22;;;5.00;88.30
71735;BME280;59577;52.122;5.406;2023-02-16T03:02:27;102359.22;;;5.01;88.47
71735;BME280;59577;52.122;5.406;2023-02-16T03:04:56;102365.09;;;5.03;88.46
71735;BME280;59577;52.122;5.406;2023-02-16T03:07:26;102352.50;;;5.04;87.87
71735;BME280;59577;52.122;5.406;2023-02-16T03:10:21;102356.25;;;5.03;87.73
71735;BME280;59577;52.122;5.406;2023-02-16T03:13:18;102349.00;;;5.03;87.99
71735;BME280;59577;52.122;5.406;2023-02-16T03:15:47;102350.09;;;5.02;88.04
71735;BME280;59577;52.122;5.406;2023-02-16T03:18:15;102355.97;;;5.04;87.96
71735;BME280;59577;52.122;5.406;2023-02-16T03:21:01;102344.72;;;5.02;87.61
71735;BME280;59577;52.122;5.406;2023-02-16T03:23:48;102341.25;;;5.02;87.63
71735;BME280;59577;52.122;5.406;2023-02-16T03:26:36;102334.78;;;5.03;87.68
71735;BME280;59577;52.122;5.406;2023-02-16T03:29:22;102338.81;;;5.05;87.91
71735;BME280;59577;52.122;5.406;2023-02-16T03:31:51;102341.22;;;5.07;87.47
71735;BME280;59577;52.122;5.406;2023-02-16T03:34:20;102340.66;;;5.10;87.67
71735;BME280;59577;52.122;5.406;2023-02-16T03:36:50;102345.22;;;5.09;88.02
71735;BME280;59577;52.122;5.406;2023-02-16T03:39:18;102343.06;;;5.12;87.54
71735;BME280;59577;52.122;5.406;2023-02-16T03:41:48;102351.63;;;5.14;87.51
71735;BME280;59577;52.122;5.406;2023-02-16T03:44:16;102350.28;;;5.16;87.38
71735;BME280;59577;52.122;5.406;2023-02-16T03:46:43;102340.88;;;5.19;87.28
71735;BME280;59577;52.122;5.406;2023-02-16T03:49:12;102347.06;;;5.19;87.30
71735;BME280;59577;52.122;5.406;2023-02-16T03:51:38;102353.22;;;5.20;87.03
71735;BME280;59577;52.122;5.406;2023-02-16T03:54:05;102350.25;;;5.21;87.74
71735;BME280;59577;52.122;5.406;2023-02-16T03:56:32;102349.16;;;5.22;87.32
71735;BME280;59577;52.122;5.406;2023-02-16T03:58:58;102358.03;;;5.23;87.41
71735;BME280;59577;52.122;5.406;2023-02-16T04:01:24;102359.34;;;5.25;87.11
71735;BME280;59577;52.122;5.406;2023-02-16T04:03:51;102356.13;;;5.28;87.30
71735;BME280;59577;52.122;5.406;2023-02-16T04:06:18;102358.53;;;5.30;86.97
71735;BME280;59577;52.122;5.406;2023-02-16T04:08:44;102367.91;;;5.33;86.96
71735;BME280;59577;52.122;5.406;2023-02-16T04:11:11;102362.25;;;5.34;87.06
71735;BME280;59577;52.122;5.406;2023-02-16T04:13:56;102362.25;;;5.34;87.07
71735;BME280;59577;52.122;5.406;2023-02-16T04:16:23;102368.13;;;5.36;86.82
71735;BME280;59577;52.122;5.406;2023-02-16T04:18:49;102354.44;;;5.38;86.49
71735;BME280;59577;52.122;5.406;2023-02-16T04:21:16;102361.44;;;5.39;86.60
71735;BME280;59577;52.122;5.406;2023-02-16T04:23:43;102357.38;;;5.41;86.25
71735;BME280;59577;52.122;5.406;2023-02-16T04:26:09;102363.84;;;5.40;86.26
71735;BME280;59577;52.122;5.406;2023-02-16T04:28:36;102358.19;;;5.42;86.53
71735;BME280;59577;52.122;5.406;2023-02-16T04:31:02;102351.72;;;5.43;86.77
71735;BME280;59577;52.122;5.406;2023-02-16T04:33:29;102348.25;;;5.42;86.54
71735;BME280;59577;52.122;5.406;2023-02-16T04:35:56;102354.41;;;5.43;86.55
71735;BME280;59577;52.122;5.406;2023-02-16T04:38:22;102354.13;;;5.44;86.55
71735;BME280;59577;52.122;5.406;2023-02-16T04:40:49;102359.50;;;5.44;86.85
71735;BME280;59577;52.122;5.406;2023-02-16T04:43:16;102362.47;;;5.43;86.13
71735;BME280;59577;52.122;5.406;2023-02-16T04:45:42;102358.97;;;5.42;86.82
71735;BME280;59577;52.122;5.406;2023-02-16T04:48:09;102357.91;;;5.43;86.75
71735;BME280;59577;52.122;5.406;2023-02-16T04:50:35;102354.41;;;5.43;86.55
71735;BME280;59577;52.122;5.406;2023-02-16T04:53:02;102356.03;;;5.44;86.89
71735;BME280;59577;52.122;5.406;2023-02-16T04:55:28;102346.88;;;5.45;86.91
71735;BME280;59577;52.122;5.406;2023-02-16T04:57:56;102351.44;;;5.44;86.56
71735;BME280;59577;52.122;5.406;2023-02-16T05:00:22;102352.25;;;5.45;86.43
71735;BME280;59577;52.122;5.406;2023-02-16T05:02:49;102350.38;;;5.45;86.52
71735;BME280;59577;52.122;5.406;2023-02-16T05:05:16;102347.41;;;5.47;86.83
71735;BME280;59577;52.122;5.406;2023-02-16T05:07:42;102344.72;;;5.47;86.78
71735;BME280;59577;52.122;5.406;2023-02-16T05:10:09;102347.41;;;5.47;86.75
71735;BME280;59577;52.122;5.406;2023-02-16T05:12:35;102334.25;;;5.45;86.85
71735;BME280;59577;52.122;5.406;2023-02-16T05:15:21;102335.84;;;5.46;86.94
71735;BME280;59577;52.122;5.406;2023-02-16T05:17:47;102328.03;;;5.50;87.08
71735;BME280;59577;52.122;5.406;2023-02-16T05:20:14;102319.19;;;5.50;86.85
71735;BME280;59577;52.122;5.406;2023-02-16T05:22:40;102323.75;;;5.49;87.24
71735;BME280;59577;52.122;5.406;2023-02-16T05:25:08;102312.22;;;5.49;86.88
71735;BME280;59577;52.122;5.406;2023-02-16T05:27:35;102324.84;;;5.48;86.87
71735;BME280;59577;52.122;5.406;2023-02-16T05:30:02;102321.34;;;5.47;86.93
71735;BME280;59577;52.122;5.406;2023-02-16T05:32:29;102324.03;;;5.47;86.95
71735;BME280;59577;52.122;5.406;2023-02-16T05:34:55;102310.88;;;5.46;87.03
71735;BME280;59577;52.122;5.406;2023-02-16T05:37:22;102312.25;;;5.43;87.16
71735;BME280;59577;52.122;5.406;2023-02-16T05:39:48;102316.81;;;5.43;86.90
71735;BME280;59577;52.122;5.406;2023-02-16T05:42:15;102318.19;;;5.40;87.28
71735;BME280;59577;52.122;5.406;2023-02-16T05:44:42;102326.53;;;5.39;87.32
71735;BME280;59577;52.122;5.406;2023-02-16T05:47:08;102329.47;;;5.37;87.61
71735;BME280;59577;52.122;5.406;2023-02-16T05:49:35;102334.06;;;5.37;87.49
71735;BME280;59577;52.122;5.406;2023-02-16T05:52:02;102340.50;;;5.36;87.68
71735;BME280;59577;52.122;5.406;2023-02-16T05:54:28;102338.59;;;5.36;87.48
71735;BME280;59577;52.122;5.406;2023-02-16T05:56:55;102323.31;;;5.37;87.46
71735;BME280;59577;52.122;5.406;2023-02-16T05:59:21;102317.13;;;5.36;87.78
71735;BME280;59577;52.122;5.406;2023-02-16T06:01:48;102326.78;;;5.37;87.87
71735;BME280;59577;52.122;5.406;2023-02-16T06:04:18;102340.75;;;5.39;87.53
71735;BME280;59577;52.122;5.406;2023-02-16T06:06:44;102334.56;;;5.39;87.65
71735;BME280;59577;52.122;5.406;2023-02-16T06:09:11;102329.47;;;5.37;87.87
71735;BME280;59577;52.122;5.406;2023-02-16T06:11:38;102319.81;;;5.36;88.09
71735;BME280;59577;52.122;5.406;2023-02-16T06:14:23;102329.75;;;5.36;87.88
71735;BME280;59577;52.122;5.406;2023-02-16T06:16:50;102334.06;;;5.37;87.86
71735;BME280;59577;52.122;5.406;2023-02-16T06:19:19;102342.13;;;5.37;87.98
71735;BME280;59577;52.122;5.406;2023-02-16T06:21:46;102342.38;;;5.35;88.02
71735;BME280;59577;52.122;5.406;2023-02-16T06:24:13;102339.69;;;5.35;87.71
71735;BME280;59577;52.122;5.406;2023-02-16T06:26:40;102336.50;;;5.33;87.88
71735;BME280;59577;52.122;5.406;2023-02-16T06:29:07;102346.97;;;5.35;88.21
71735;BME280;59577;52.122;5.406;2023-02-16T06:31:34;102341.59;;;5.35;88.06
71735;BME280;59577;52.122;5.406;2023-02-16T06:34:02;102335.41;;;5.34;87.92
71735;BME280;59577;52.122;5.406;2023-02-16T06:36:30;102345.06;;;5.35;88.59
71735;BME280;59577;52.122;5.406;2023-02-16T06:38:57;102346.97;;;5.35;88.54
71735;BME280;59577;52.122;5.406;2023-02-16T06:41:23;102346.97;;;5.35;88.20
71735;BME280;59577;52.122;5.406;2023-02-16T06:44:09;102349.34;;;5.36;88.37
71735;BME280;59577;52.122;5.406;2023-02-16T06:46:41;102354.72;;;5.36;88.45
71735;BME280;59577;52.122;5.406;2023-02-16T06:49:13;102345.59;;;5.37;88.63
71735;BME280;59577;52.122;5.406;2023-02-16T06:51:40;102345.59;;;5.37;88.63
71735;BME280;59577;52.122;5.406;2023-02-16T06:54:06;102338.06;;;5.39;87.96
71735;BME280;59577;52.122;5.406;2023-02-16T06:56:33;102338.88;;;5.40;88.69
71735;BME280;59577;52.122;5.406;2023-02-16T06:59:03;102335.38;;;5.39;88.45
71735;BME280;59577;52.122;5.406;2023-02-16T07:01:29;102341.56;;;5.40;88.17
71735;BME280;59577;52.122;5.406;2023-02-16T07:03:56;102340.47;;;5.41;88.58
71735;BME280;59577;52.122;5.406;2023-02-16T07:06:25;102342.88;;;5.42;88.66
71735;BME280;59577;52.122;5.406;2023-02-16T07:08:53;102348.75;;;5.44;88.67
71735;BME280;59577;52.122;5.406;2023-02-16T07:11:20;102350.91;;;5.47;88.44
71735;BME280;59577;52.122;5.406;2023-02-16T07:13:47;102348.72;;;5.50;88.28
71735;BME280;59577;52.122;5.406;2023-02-16T07:16:13;102347.38;;;5.52;88.45
71735;BME280;59577;52.122;5.406;2023-02-16T07:18:41;102350.31;;;5.56;88.69
71735;BME280;59577;52.122;5.406;2023-02-16T07:21:07;102352.13;;;5.60;88.27
71735;BME280;59577;52.122;5.406;2023-02-16T07:23:34;102350.78;;;5.63;88.17
71735;BME280;59577;52.122;5.406;2023-02-16T07:26:00;102353.72;;;5.67;88.35
71735;BME280;59577;52.122;5.406;2023-02-16T07:28:27;102358.53;;;5.70;88.28
71735;BME280;59577;52.122;5.406;2023-02-16T07:30:53;102363.34;;;5.73;88.33
71735;BME280;59577;52.122;5.406;2023-02-16T07:33:20;102361.97;;;5.75;87.92
71735;BME280;59577;52.122;5.406;2023-02-16T07:35:47;102355.22;;;5.78;88.05
71735;BME280;59577;52.122;5.406;2023-02-16T07:38:13;102361.94;;;5.80;88.22
71735;BME280;59577;52.122;5.406;2023-02-16T07:40:40;102357.06;;;5.82;88.10
71735;BME280;59577;52.122;5.406;2023-02-16T07:43:07;102368.06;;;5.86;88.01
71735;BME280;59577;52.122;5.406;2023-02-16T07:45:34;102373.66;;;5.90;88.04
71735;BME280;59577;52.122;5.406;2023-02-16T07:48:01;102369.63;;;5.92;88.01
71735;BME280;59577;52.122;5.406;2023-02-16T07:50:28;102370.94;;;5.95;88.12
71735;BME280;59577;52.122;5.406;2023-02-16T07:52:54;102371.50;;;5.97;87.89
71735;BME280;59577;52.122;5.406;2023-02-16T07:55:21;102366.66;;;5.99;87.88
71735;BME280;59577;52.122;5.406;2023-02-16T07:57:47;102370.38;;;6.03;87.69
71735;BME280;59577;52.122;5.406;2023-02-16T08:00:15;102369.81;;;6.06;87.85
71735;BME280;59577;52.122;5.406;2023-02-16T08:02:41;102376.50;;;6.09;87.71
71735;BME280;59577;52.122;5.406;2023-02-16T08:05:08;102377.56;;;6.13;87.94
71735;BME280;59577;52.122;5.406;2023-02-16T08:07:34;102376.97;;;6.16;87.45
71735;BME280;59577;52.122;5.406;2023-02-16T08:10:01;102382.59;;;6.19;87.56
71735;BME280;59577;52.122;5.406;2023-02-16T08:12:27;102395.47;;;6.22;87.68
71735;BME280;59577;52.122;5.406;2023-02-16T08:14:54;102393.00;;;6.26;87.57
71735;BME280;59577;52.122;5.406;2023-02-16T08:17:20;102386.28;;;6.29;87.52
71735;BME280;59577;52.122;5.406;2023-02-16T08:19:48;102384.09;;;6.31;87.48
71735;BME280;59577;52.122;5.406;2023-02-16T08:22:16;102394.28;;;6.34;87.19
71735;BME280;59577;52.122;5.406;2023-02-16T08:24:43;102387.53;;;6.36;87.22
71735;BME280;59577;52.122;5.406;2023-02-16T08:27:09;102390.44;;;6.40;87.00
71735;BME280;59577;52.122;5.406;2023-02-16T08:29:36;102393.13;;;6.40;87.19
71735;BME280;59577;52.122;5.406;2023-02-16T08:32:11;102401.75;;;6.42;87.05
71735;BME280;59577;52.122;5.406;2023-02-16T08:34:38;102391.00;;;6.42;86.90
71735;BME280;59577;52.122;5.406;2023-02-16T08:37:10;102396.59;;;6.46;86.99
71735;BME280;59577;52.122;5.406;2023-02-16T08:39:38;102396.31;;;6.47;86.94
71735;BME280;59577;52.122;5.406;2023-02-16T08:42:04;102403.28;;;6.48;87.22
71735;BME280;59577;52.122;5.406;2023-02-16T08:44:31;102407.59;;;6.49;86.58
71735;BME280;59577;52.122;5.406;2023-02-16T08:46:59;102396.25;;;6.52;86.88
71735;BME280;59577;52.122;5.406;2023-02-16T08:49:26;102399.75;;;6.53;87.02
71735;BME280;59577;52.122;5.406;2023-02-16T08:51:55;102402.94;;;6.55;86.72
71735;BME280;59577;52.122;5.406;2023-02-16T08:54:24;102412.63;;;6.56;86.63
71735;BME280;59577;52.122;5.406;2023-02-16T08:56:53;102402.66;;;6.56;86.85
71735;BME280;59577;52.122;5.406;2023-02-16T08:59:22;102402.66;;;6.56;87.04
71735;BME280;59577;52.122;5.406;2023-02-16T09:01:49;102403.47;;;6.57;86.89
71735;BME280;59577;52.122;5.406;2023-02-16T09:04:17;102404.56;;;6.56;87.01
71735;BME280;59577;52.122;5.406;2023-02-16T09:06:45;102408.06;;;6.56;87.17
71735;BME280;59577;52.122;5.406;2023-02-16T09:09:14;102408.34;;;6.55;87.75
71735;BME280;59577;52.122;5.406;2023-02-16T09:11:40;102412.91;;;6.54;87.89
71735;BME280;59577;52.122;5.406;2023-02-16T09:14:07;102414.00;;;6.53;87.77
71735;BME280;59577;52.122;5.406;2023-02-16T09:16:35;102415.09;;;6.52;88.68
71735;BME280;59577;52.122;5.406;2023-02-16T09:19:05;102413.25;;;6.48;88.98
71735;BME280;59577;52.122;5.406;2023-02-16T09:21:32;102416.50;;;6.45;89.03
71735;BME280;59577;52.122;5.406;2023-02-16T09:24:01;102420.25;;;6.44;89.99
71735;BME280;59577;52.122;5.406;2023-02-16T09:26:34;102425.13;;;6.42;90.48
71735;BME280;59577;52.122;5.406;2023-02-16T09:29:02;102421.13;;;6.39;90.79
71735;BME280;59577;52.122;5.406;2023-02-16T09:31:31;102418.44;;;6.39;90.90
71735;BME280;59577;52.122;5.406;2023-02-16T09:34:05;102413.06;;;6.39;91.98
71735;BME280;59577;52.122;5.406;2023-02-16T09:36:33;102394.25;;;6.39;92.12
71735;BME280;59577;52.122;5.406;2023-02-16T09:39:00;102392.91;;;6.36;92.59
71735;BME280;59577;52.122;5.406;2023-02-16T09:44:16;102400.75;;;6.33;93.78
71735;BME280;59577;52.122;5.406;2023-02-16T09:46:47;102415.25;;;6.37;94.39
71735;BME280;59577;52.122;5.406;2023-02-16T09:49:34;102412.56;;;6.37;94.62
71735;BME280;59577;52.122;5.406;2023-02-16T09:54:56;102410.34;;;6.44;95.13
71735;BME280;59577;52.122;5.406;2023-02-16T10:08:08;102420.13;;;6.30;96.13
71735;BME280;59577;52.122;5.406;2023-02-16T10:10:47;102423.63;;;6.30;96.55
71735;BME280;59577;52.122;5.406;2023-02-16T10:13:23;102428.19;;;6.30;96.82
71735;BME280;59577;52.122;5.406;2023-02-16T10:15:53;102422.31;;;6.28;96.82
71735;BME280;59577;52.122;5.406;2023-02-16T10:18:27;102421.47;;;6.32;96.81
71735;BME280;59577;52.122;5.406;2023-02-16T10:20:57;102420.09;;;6.35;97.10
71735;BME280;59577;52.122;5.406;2023-02-16T10:23:51;102416.84;;;6.38;97.36
71735;BME280;59577;52.122;5.406;2023-02-16T10:26:43;102414.66;;;6.40;97.69
71735;BME280;59577;52.122;5.406;2023-02-16T10:29:16;102411.13;;;6.45;97.85
71735;BME280;59577;52.122;5.406;2023-02-16T10:37:35;102405.47;;;6.70;98.15
71735;BME280;59577;52.122;5.406;2023-02-16T10:42:47;102413.44;;;6.81;98.09
71735;BME280;59577;52.122;5.406;2023-02-16T10:45:36;102406.91;;;6.87;98.25
71735;BME280;59577;52.122;5.406;2023-02-16T10:48:04;102417.75;;;7.01;98.65
71735;BME280;59577;52.122;5.406;2023-02-16T10:50:32;102416.34;;;7.08;98.43
71735;BME280;59577;52.122;5.406;2023-02-16T10:53:17;102415.16;;;7.14;98.46
71735;BME280;59577;52.122;5.406;2023-02-16T10:55:45;102420.50;;;7.20;98.67
71735;BME280;59577;52.122;5.406;2023-02-16T10:58:18;102409.38;;;7.26;98.28
71735;BME280;59577;52.122;5.406;2023-02-16T11:00:53;102414.19;;;7.29;98.35
71735;BME280;59577;52.122;5.406;2023-02-16T11:03:24;102402.13;;;7.27;97.86
71735;BME280;59577;52.122;5.406;2023-02-16T11:05:51;102402.91;;;7.27;97.96
71735;BME280;59577;52.122;5.406;2023-02-16T11:08:18;102392.56;;;7.34;97.88
71735;BME280;59577;52.122;5.406;2023-02-16T11:10:50;102395.63;;;7.47;98.05
71735;BME280;59577;52.122;5.406;2023-02-16T11:13:34;102391.69;;;7.58;98.34
71735;BME280;59577;52.122;5.406;2023-02-16T11:16:10;102395.41;;;7.62;98.09
71735;BME280;59577;52.122;5.406;2023-02-16T11:18:40;102399.63;;;7.68;97.62
71735;BME280;59577;52.122;5.406;2023-02-16T11:21:09;102389.06;;;7.72;97.81
71735;BME280;59577;52.122;5.406;2023-02-16T11:23:43;102376.09;;;7.74;97.35
71735;BME280;59577;52.122;5.406;2023-02-16T11:26:24;102379.00;;;7.78;97.27
71735;BME280;59577;52.122;5.406;2023-02-16T11:28:51;102374.81;;;7.85;97.28
71735;BME280;59577;52.122;5.406;2023-02-16T11:31:29;102376.63;;;7.90;97.79
71735;BME280;59577;52.122;5.406;2023-02-16T11:34:06;102371.94;;;7.96;97.45
71735;BME280;59577;52.122;5.406;2023-02-16T11:36:40;102371.66;;;7.97;97.27
71735;BME280;59577;52.122;5.406;2023-02-16T11:39:24;102373.34;;;7.93;96.82
71735;BME280;59577;52.122;5.406;2023-02-16T11:41:56;102368.47;;;7.95;97.18
71735;BME280;59577;52.122;5.406;2023-02-16T11:44:33;102369.06;;;8.06;97.21
71735;BME280;59577;52.122;5.406;2023-02-16T11:47:03;102371.97;;;8.09;96.54
71735;BME280;59577;52.122;5.406;2023-02-16T11:49:32;102367.53;;;8.19;96.92
71735;BME280;59577;52.122;5.406;2023-02-16T11:51:59;102365.44;;;8.29;96.49
71735;BME280;59577;52.122;5.406;2023-02-16T11:54:26;102365.22;;;8.26;96.50
71735;BME280;59577;52.122;5.406;2023-02-16T11:57:05;102357.25;;;8.35;96.23
71735;BME280;59577;52.122;5.406;2023-02-16T11:59:37;102368.44;;;8.42;96.05
71735;BME280;59577;52.122;5.406;2023-02-16T12:05:08;102347.00;;;8.51;95.44
71735;BME280;59577;52.122;5.406;2023-02-16T12:07:54;102345.31;;;8.55;95.42
71735;BME280;59577;52.122;5.406;2023-02-16T12:10:38;102352.69;;;8.63;95.14
71735;BME280;59577;52.122;5.406;2023-02-16T12:13:17;102332.09;;;8.67;94.71
71735;BME280;59577;52.122;5.406;2023-02-16T12:15:56;102341.47;;;8.83;95.00
71735;BME280;59577;52.122;5.406;2023-02-16T12:18:42;102335.34;;;8.92;93.76
71735;BME280;59577;52.122;5.406;2023-02-16T12:21:37;102325.44;;;9.01;93.55
71735;BME280;59577;52.122;5.406;2023-02-16T12:27:03;102310.38;;;9.22;93.11
71735;BME280;59577;52.122;5.406;2023-02-16T12:35:40;102285.00;;;10.18;90.11
71735;BME280;59577;52.122;5.406;2023-02-16T12:38:40;102278.97;;;10.29;88.93
71735;BME280;59577;52.122;5.406;2023-02-16T12:44:15;102276.09;;;10.26;86.99
71735;BME280;59577;52.122;5.406;2023-02-16T12:46:46;102264.28;;;10.13;87.25
71735;BME280;59577;52.122;5.406;2023-02-16T12:49:26;102258.09;;;10.12;87.66
71735;BME280;59577;52.122;5.406;2023-02-16T12:52:20;102252.88;;;10.25;87.67
71735;BME280;59577;52.122;5.406;2023-02-16T12:54:56;102252.25;;;10.28;87.58
71735;BME280;59577;52.122;5.406;2023-02-16T12:57:26;102247.69;;;10.37;87.38
71735;BME280;59577;52.122;5.406;2023-02-16T12:59:59;102254.88;;;10.59;87.38
71735;BME280;59577;52.122;5.406;2023-02-16T13:03:02;102255.38;;;10.61;86.48
71735;BME280;59577;52.122;5.406;2023-02-16T13:05:35;102241.50;;;10.45;85.89
71735;BME280;59577;52.122;5.406;2023-02-16T13:10:42;102249.09;;;10.34;86.33
71735;BME280;59577;52.122;5.406;2023-02-16T13:13:14;102254.13;;;10.19;86.21
71735;BME280;59577;52.122;5.406;2023-02-16T13:15:59;102254.69;;;10.07;87.10
71735;BME280;59577;52.122;5.406;2023-02-16T13:18:32;102250.09;;;10.07;87.17
71735;BME280;59577;52.122;5.406;2023-02-16T13:21:08;102245.34;;;10.13;87.28
71735;BME280;59577;52.122;5.406;2023-02-16T13:23:42;102243.91;;;10.15;87.46
71735;BME280;59577;52.122;5.406;2023-02-16T13:29:21;102227.16;;;10.05;87.38
71735;BME280;59577;52.122;5.406;2023-02-16T13:32:05;102234.06;;;10.20;87.73
71735;BME280;59577;52.122;5.406;2023-02-16T13:40:40;102204.84;;;10.39;87.40
71735;BME280;59577;52.122;5.406;2023-02-16T13:43:33;102198.81;;;10.51;87.28
71735;BME280;59577;52.122;5.406;2023-02-16T13:46:06;102209.97;;;10.58;86.52
71735;BME280;59577;52.122;5.406;2023-02-16T13:48:44;102198.81;;;10.60;86.13
71735;BME280;59577;52.122;5.406;2023-02-16T13:51:15;102185.44;;;10.63;85.98
71735;BME280;59577;52.122;5.406;2023-02-16T13:53:51;102178.41;;;10.62;84.54
71735;BME280;59577;52.122;5.406;2023-02-16T13:58:55;102177.16;;;10.42;84.67
71735;BME280;59577;52.122;5.406;2023-02-16T14:01:43;102177.47;;;10.41;85.15
71735;BME280;59577;52.122;5.406;2023-02-16T14:12:04;102183.97;;;10.48;84.71
71735;BME280;59577;52.122;5.406;2023-02-16T14:19:54;102167.59;;;10.53;84.28
71735;BME280;59577;52.122;5.406;2023-02-16T14:24:55;102165.53;;;10.50;83.84
71735;BME280;59577;52.122;5.406;2023-02-16T14:27:43;102160.91;;;10.51;84.15
71735;BME280;59577;52.122;5.406;2023-02-16T14:30:19;102149.44;;;10.54;83.82
71735;BME280;59577;52.122;5.406;2023-02-16T14:32:55;102145.13;;;10.62;84.23
71735;BME280;59577;52.122;5.406;2023-02-16T14:35:32;102142.91;;;10.64;83.67
71735;BME280;59577;52.122;5.406;2023-02-16T14:38:06;102149.59;;;10.66;83.67
71735;BME280;59577;52.122;5.406;2023-02-16T14:43:09;102145.75;;;10.67;83.60
71735;BME280;59577;52.122;5.406;2023-02-16T14:48:44;102147.19;;;10.73;83.89
71735;BME280;59577;52.122;5.406;2023-02-16T14:51:43;102139.25;;;10.68;83.43
71735;BME280;59577;52.122;5.406;2023-02-16T14:54:35;102135.59;;;10.64;83.59
71735;BME280;59577;52.122;5.406;2023-02-16T14:57:13;102142.09;;;10.63;83.55
71735;BME280;59577;52.122;5.406;2023-02-16T14:59:52;102145.44;;;10.60;83.47
71735;BME280;59577;52.122;5.406;2023-02-16T15:02:30;102148.31;;;10.55;83.05
71735;BME280;59577;52.122;5.406;2023-02-16T15:05:20;102147.38;;;10.51;82.84
71735;BME280;59577;52.122;5.406;2023-02-16T15:07:50;102155.97;;;10.53;82.85